createdAt,value
2022-11-17T00:01:33.965Z,6.30
2022-11-17T00:04:06.114Z,9.35
2022-11-17T00:06:38.027Z,6.72
2022-11-17T00:09:17.545Z,9.38
2022-11-17T00:12:08.729Z,9.35
2022-11-17T00:15:00.420Z,7.63
2022-11-17T00:17:32.400Z,7.65
2022-11-17T00:20:23.217Z,8.77
2022-11-17T00:23:15.615Z,7.10
2022-11-17T00:25:47.474Z,8.05
2022-11-17T00:28:19.590Z,7.32
2022-11-17T00:31:11.698Z,7.68
2022-11-17T00:34:06.184Z,8.68
2022-11-17T00:36:44.145Z,8.40
2022-11-17T00:39:19.814Z,6.70
2022-11-17T00:41:53.687Z,6.95
2022-11-17T00:44:27.323Z,7.95
2022-11-17T00:47:00.207Z,8.07
2022-11-17T00:49:32.236Z,7.63
2022-11-17T00:52:05.405Z,8.40
2022-11-17T00:54:37.421Z,8.70
2022-11-17T00:57:09.468Z,8.18
2022-11-17T00:59:41.289Z,6.45
2022-11-17T01:02:13.151Z,6.90
2022-11-17T01:04:45.258Z,7.30
2022-11-17T01:07:17.178Z,5.47
2022-11-17T01:09:49.142Z,6.80
2022-11-17T01:12:21.085Z,9.73
2022-11-17T01:14:52.977Z,7.70
2022-11-17T01:17:25.236Z,6.53
2022-11-17T01:19:57.424Z,5.80
2022-11-17T01:22:29.301Z,5.03
2022-11-17T01:25:01.340Z,6.25
2022-11-17T01:27:33.616Z,5.97
2022-11-17T01:30:06.231Z,5.32
2022-11-17T01:32:38.788Z,5.40
2022-11-17T01:35:10.866Z,6.05
2022-11-17T01:37:42.808Z,7.80
2022-11-17T01:40:15.089Z,5.25
2022-11-17T01:42:47.061Z,5.97
2022-11-17T01:45:23.067Z,6.60
2022-11-17T01:47:59.804Z,4.90
2022-11-17T01:50:39.170Z,4.75
2022-11-17T01:53:17.540Z,5.03
2022-11-17T01:55:58.568Z,4.97
2022-11-17T01:58:40.798Z,5.22
2022-11-17T02:01:17.094Z,4.75
2022-11-17T02:03:50.225Z,4.40
2022-11-17T02:06:34.048Z,4.65
2022-11-17T02:09:07.557Z,4.88
2022-11-17T02:11:39.497Z,4.65
2022-11-17T02:14:11.566Z,5.20
2022-11-17T02:16:43.667Z,5.30
2022-11-17T02:19:16.767Z,5.72
2022-11-17T02:22:28.486Z,5.05
2022-11-17T02:25:11.313Z,5.35
2022-11-17T02:28:08.717Z,8.25
2022-11-17T02:30:55.848Z,4.72
2022-11-17T02:34:13.776Z,5.22
2022-11-17T02:37:24.214Z,4.63
2022-11-17T02:40:24.875Z,7.30
2022-11-17T02:43:29.704Z,4.65
2022-11-17T02:46:23.309Z,5.05
2022-11-17T02:49:04.273Z,4.63
2022-11-17T02:51:44.001Z,5.80
2022-11-17T02:54:21.188Z,5.00
2022-11-17T02:56:54.969Z,9.25
2022-11-17T02:59:34.075Z,4.90
2022-11-17T03:02:39.599Z,5.75
2022-11-17T03:06:18.741Z,4.75
2022-11-17T03:09:17.503Z,4.60
2022-11-17T03:12:16.351Z,7.40
2022-11-17T03:15:21.244Z,4.78
2022-11-17T03:18:23.053Z,3.90
2022-11-17T03:21:23.170Z,4.03
2022-11-17T03:24:11.625Z,3.78
2022-11-17T03:26:53.251Z,7.10
2022-11-17T03:29:34.452Z,5.35
2022-11-17T03:32:10.525Z,3.65
2022-11-17T03:34:49.646Z,4.13
2022-11-17T03:37:31.363Z,4.65
2022-11-17T03:40:09.564Z,3.63
2022-11-17T03:42:52.662Z,4.00
2022-11-17T03:45:35.643Z,4.72
2022-11-17T03:48:19.794Z,3.70
2022-11-17T03:51:07.237Z,4.75
2022-11-17T03:53:48.492Z,3.65
2022-11-17T03:56:39.198Z,3.47
2022-11-17T03:59:55.165Z,3.50
2022-11-17T04:02:32.494Z,3.90
2022-11-17T04:05:07.299Z,3.38
2022-11-17T04:07:45.408Z,3.47
2022-11-17T04:10:20.264Z,4.95
2022-11-17T04:13:13.339Z,6.15
2022-11-17T04:16:05.612Z,3.47
2022-11-17T04:18:37.881Z,2.88
2022-11-17T04:21:09.801Z,3.20
2022-11-17T04:23:41.652Z,3.47
2022-11-17T04:26:32.359Z,4.15
2022-11-17T04:29:23.992Z,3.05
2022-11-17T04:31:55.992Z,3.22
2022-11-17T04:34:27.896Z,3.50
2022-11-17T04:37:03.880Z,3.38
2022-11-17T04:39:47.874Z,3.60
2022-11-17T04:42:19.779Z,3.55
2022-11-17T04:44:51.671Z,4.82
2022-11-17T04:47:23.658Z,3.50
2022-11-17T04:49:55.482Z,2.75
2022-11-17T04:52:29.883Z,3.45
2022-11-17T04:55:01.973Z,3.42
2022-11-17T04:57:36.655Z,3.80
2022-11-17T05:00:09.241Z,3.65
2022-11-17T05:02:41.781Z,3.50
2022-11-17T05:05:13.766Z,4.10
2022-11-17T05:07:45.653Z,7.10
2022-11-17T05:10:37.637Z,3.70
2022-11-17T05:13:29.366Z,3.78
2022-11-17T05:16:20.809Z,3.30
2022-11-17T05:19:21.653Z,4.10
2022-11-17T05:21:56.258Z,4.15
2022-11-17T05:24:28.196Z,4.57
2022-11-17T05:27:01.278Z,3.85
2022-11-17T05:29:33.164Z,4.90
2022-11-17T05:32:05.159Z,3.60
2022-11-17T05:34:37.530Z,4.13
2022-11-17T05:37:09.582Z,4.00
2022-11-17T05:39:41.668Z,3.92
2022-11-17T05:42:13.670Z,3.97
2022-11-17T05:44:46.419Z,5.22
2022-11-17T05:47:19.174Z,4.00
2022-11-17T05:49:51.213Z,3.40
2022-11-17T05:52:23.143Z,4.00
2022-11-17T05:54:55.024Z,4.00
2022-11-17T05:57:30.967Z,3.42
2022-11-17T06:00:04.759Z,3.65
2022-11-17T06:03:00.448Z,3.55
2022-11-17T06:05:36.497Z,3.30
2022-11-17T06:08:08.691Z,4.13
2022-11-17T06:10:40.800Z,3.40
2022-11-17T06:13:12.698Z,3.67
2022-11-17T06:15:44.790Z,5.05
2022-11-17T06:18:19.732Z,3.10
2022-11-17T06:20:55.680Z,3.13
2022-11-17T06:23:31.064Z,3.15
2022-11-17T06:26:08.024Z,2.85
2022-11-17T06:28:43.305Z,4.28
2022-11-17T06:31:18.030Z,2.40
2022-11-17T06:33:50.082Z,2.95
2022-11-17T06:36:22.121Z,3.13
2022-11-17T06:38:55.064Z,2.65
2022-11-17T06:41:27.393Z,2.35
2022-11-17T06:43:59.365Z,3.63
2022-11-17T06:46:37.996Z,3.03
2022-11-17T06:49:10.032Z,2.78
2022-11-17T06:51:45.100Z,2.83
2022-11-17T06:54:17.490Z,3.03
2022-11-17T06:56:51.248Z,2.53
2022-11-17T06:59:23.413Z,3.97
2022-11-17T07:01:55.327Z,2.75
2022-11-17T07:04:30.109Z,2.53
2022-11-17T07:07:02.159Z,2.63
2022-11-17T07:09:34.262Z,2.70
2022-11-17T07:12:06.391Z,2.60
2022-11-17T07:14:58.298Z,2.50
2022-11-17T07:17:30.428Z,2.97
2022-11-17T07:20:02.624Z,2.63
2022-11-17T07:22:35.202Z,2.92
2022-11-17T07:25:12.785Z,2.55
2022-11-17T07:27:44.797Z,2.42
2022-11-17T07:30:16.911Z,2.80
2022-11-17T07:32:54.393Z,2.30
2022-11-17T07:35:29.508Z,2.22
2022-11-17T07:38:01.677Z,5.40
2022-11-17T07:40:33.792Z,2.13
2022-11-17T07:43:06.198Z,2.20
2022-11-17T07:45:38.230Z,2.25
2022-11-17T07:48:10.374Z,2.72
2022-11-17T07:50:42.448Z,2.20
2022-11-17T07:53:15.695Z,2.75
2022-11-17T07:55:47.819Z,2.90
2022-11-17T07:58:19.804Z,2.95
2022-11-17T08:00:51.861Z,2.33
2022-11-17T08:03:26.808Z,2.42
2022-11-17T08:06:02.873Z,1.80
2022-11-17T08:08:38.174Z,1.60
2022-11-17T08:11:12.436Z,1.55
2022-11-17T08:14:04.303Z,1.80
2022-11-17T08:16:36.769Z,3.03
2022-11-17T08:19:11.961Z,1.60
2022-11-17T08:21:47.670Z,3.20
2022-11-17T08:24:21.730Z,1.60
2022-11-17T08:27:24.821Z,3.78
2022-11-17T08:29:57.381Z,1.30
2022-11-17T08:32:29.485Z,2.97
2022-11-17T08:35:04.035Z,4.20
2022-11-17T08:37:40.788Z,2.20
2022-11-17T08:40:13.686Z,1.35
2022-11-17T08:42:46.825Z,1.75
2022-11-17T08:45:23.432Z,1.75
2022-11-17T08:47:56.873Z,3.65
2022-11-17T08:50:38.434Z,2.13
2022-11-17T08:53:19.258Z,1.67
2022-11-17T08:55:52.899Z,1.52
2022-11-17T08:58:27.995Z,1.52
2022-11-17T09:01:05.104Z,2.80
2022-11-17T09:03:41.717Z,3.03
2022-11-17T09:06:16.784Z,1.25
2022-11-17T09:08:50.511Z,1.25
2022-11-17T09:11:24.909Z,1.75
2022-11-17T09:13:57.053Z,1.38
2022-11-17T09:16:29.202Z,2.55
2022-11-17T09:19:02.680Z,1.38
2022-11-17T09:21:34.841Z,1.60
2022-11-17T09:24:07.280Z,2.38
2022-11-17T09:26:43.088Z,2.78
2022-11-17T09:29:15.909Z,1.70
2022-11-17T09:31:48.118Z,1.48
2022-11-17T09:34:20.396Z,2.60
2022-11-17T09:36:52.636Z,1.80
2022-11-17T09:39:24.715Z,1.55
2022-11-17T09:41:57.627Z,1.75
2022-11-17T09:44:41.857Z,2.22
2022-11-17T09:48:02.385Z,1.33
2022-11-17T09:50:58.664Z,1.83
2022-11-17T09:53:43.199Z,1.80
2022-11-17T09:56:24.269Z,1.92
2022-11-17T09:59:04.487Z,1.40
2022-11-17T10:01:38.814Z,1.75
2022-11-17T10:04:13.085Z,2.33
2022-11-17T10:06:49.188Z,3.58
2022-11-17T10:09:42.657Z,2.40
2022-11-17T10:12:22.143Z,2.28
2022-11-17T10:15:02.475Z,2.28
2022-11-17T10:17:52.467Z,1.40
2022-11-17T10:20:24.616Z,2.92
2022-11-17T10:22:57.538Z,2.33
2022-11-17T10:25:36.772Z,1.35
2022-11-17T10:28:31.655Z,3.30
2022-11-17T10:31:18.666Z,2.00
2022-11-17T10:33:51.332Z,2.30
2022-11-17T10:36:29.612Z,3.83
2022-11-17T10:39:02.502Z,1.90
2022-11-17T10:41:45.255Z,1.63
2022-11-17T10:44:27.109Z,4.35
2022-11-17T10:47:07.951Z,2.75
2022-11-17T10:50:22.782Z,2.22
2022-11-17T10:53:27.910Z,3.35
2022-11-17T10:56:19.787Z,1.90
2022-11-17T10:59:18.505Z,2.30
2022-11-17T11:02:31.582Z,2.47
2022-11-17T11:05:15.425Z,1.50
2022-11-17T11:07:49.092Z,1.65
2022-11-17T11:10:31.364Z,3.08
2022-11-17T11:13:30.977Z,2.40
2022-11-17T11:16:11.927Z,2.63
2022-11-17T11:18:44.560Z,4.55
2022-11-17T11:21:46.666Z,2.58
2022-11-17T11:24:42.039Z,2.47
2022-11-17T11:27:55.348Z,1.67
2022-11-17T11:31:28.556Z,2.88
2022-11-17T11:34:39.078Z,2.53
2022-11-17T11:37:40.428Z,2.60
2022-11-17T11:40:32.136Z,1.80
2022-11-17T11:43:52.943Z,2.08
2022-11-17T11:47:03.089Z,4.15
2022-11-17T11:50:05.501Z,2.15
2022-11-17T11:52:55.554Z,1.30
2022-11-17T11:55:36.652Z,1.83
2022-11-17T11:58:21.895Z,2.70
2022-11-17T12:01:06.799Z,1.95
2022-11-17T12:04:14.414Z,2.65
2022-11-17T12:07:23.410Z,1.77
2022-11-17T12:10:14.189Z,1.83
2022-11-17T12:13:06.397Z,2.00
2022-11-17T12:15:43.719Z,3.45
2022-11-17T12:18:18.972Z,5.13
2022-11-17T12:21:23.063Z,2.33
2022-11-17T12:24:10.877Z,2.85
2022-11-17T12:26:47.304Z,2.90
2022-11-17T12:29:22.317Z,2.60
2022-11-17T12:32:01.107Z,3.25
2022-11-17T12:34:39.371Z,2.53
2022-11-17T12:37:15.057Z,3.50
2022-11-17T12:40:00.173Z,2.78
2022-11-17T12:43:16.079Z,2.50
2022-11-17T12:46:12.827Z,1.85
2022-11-17T12:49:06.281Z,1.35
2022-11-17T12:52:00.606Z,1.48
2022-11-17T12:55:11.916Z,4.72
2022-11-17T12:58:09.089Z,3.60
2022-11-17T13:01:33.087Z,3.15
2022-11-17T13:04:35.933Z,3.17
2022-11-17T13:07:23.252Z,2.83
2022-11-17T13:09:59.308Z,3.08
2022-11-17T13:12:34.396Z,4.88
2022-11-17T13:15:07.635Z,4.25
2022-11-17T13:17:55.336Z,2.85
2022-11-17T13:20:30.475Z,4.20
2022-11-17T13:23:33.789Z,2.60
2022-11-17T13:26:22.172Z,3.40
2022-11-17T13:29:07.634Z,5.53
2022-11-17T13:31:42.878Z,4.00
2022-11-17T13:34:21.402Z,3.00
2022-11-17T13:36:54.557Z,2.97
2022-11-17T13:39:28.783Z,3.25
2022-11-17T13:42:03.371Z,4.88
2022-11-17T13:44:35.963Z,5.32
2022-11-17T13:47:31.072Z,5.13
2022-11-17T13:50:24.346Z,2.88
2022-11-17T13:53:12.179Z,2.55
2022-11-17T13:55:53.954Z,3.75
2022-11-17T13:58:41.118Z,6.18
2022-11-17T14:01:15.977Z,9.02
2022-11-17T14:03:52.904Z,4.55
2022-11-17T14:07:02.315Z,3.45
2022-11-17T14:09:35.514Z,6.45
2022-11-17T14:12:11.544Z,5.78
2022-11-17T14:14:46.859Z,9.32
2022-11-17T14:17:20.670Z,5.03
2022-11-17T14:19:53.917Z,6.53
2022-11-17T14:22:31.491Z,4.75
2022-11-17T14:25:05.747Z,4.72
2022-11-17T14:27:39.589Z,5.47
2022-11-17T14:30:13.349Z,8.63
2022-11-17T14:32:45.917Z,5.80
2022-11-17T14:37:50.360Z,4.20
2022-11-17T14:40:22.496Z,4.07
2022-11-17T14:42:54.588Z,5.00
2022-11-17T14:45:26.908Z,6.07
2022-11-17T14:47:59.085Z,3.13
2022-11-17T14:50:34.594Z,6.22
2022-11-17T14:53:07.024Z,2.88
2022-11-17T14:55:39.039Z,7.93
2022-11-17T14:58:11.131Z,4.20
2022-11-17T15:00:43.098Z,4.97
2022-11-17T15:03:15.619Z,7.45
2022-11-17T15:05:47.663Z,5.78
2022-11-17T15:08:20.851Z,4.53
2022-11-17T15:10:55.249Z,4.35
2022-11-17T15:13:27.576Z,7.68
2022-11-17T15:16:05.032Z,6.72
2022-11-17T15:18:37.761Z,3.75
2022-11-17T15:21:23.186Z,8.48
2022-11-17T15:23:55.371Z,3.70
2022-11-17T15:26:28.020Z,6.07
2022-11-17T15:29:01.154Z,7.03
2022-11-17T15:31:33.074Z,5.00
2022-11-17T15:34:05.167Z,5.88
2022-11-17T15:36:37.516Z,7.93
2022-11-17T15:39:11.281Z,7.13
2022-11-17T15:41:43.917Z,6.53
2022-11-17T15:44:16.469Z,4.28
2022-11-17T15:46:49.493Z,4.75
2022-11-17T15:49:21.736Z,4.70
2022-11-17T15:51:54.582Z,4.00
2022-11-17T15:54:26.708Z,5.80
2022-11-17T15:57:01.541Z,6.00
2022-11-17T15:59:34.361Z,6.07
2022-11-17T16:02:10.517Z,6.70
2022-11-17T16:04:44.613Z,5.57
2022-11-17T16:07:17.202Z,7.18
2022-11-17T16:09:50.533Z,9.10
2022-11-17T16:12:23.951Z,6.38
2022-11-17T16:14:56.048Z,9.88
2022-11-17T16:17:28.767Z,7.40
2022-11-17T16:20:01.051Z,7.93
2022-11-17T16:22:34.051Z,5.97
2022-11-17T16:25:07.813Z,3.35
2022-11-17T16:27:41.234Z,6.63
2022-11-17T16:30:13.460Z,4.20
2022-11-17T16:32:46.823Z,4.00
2022-11-17T16:35:19.277Z,6.00
2022-11-17T16:37:52.343Z,7.05
2022-11-17T16:40:25.388Z,6.82
2022-11-17T16:43:01.383Z,8.20
2022-11-17T16:45:45.307Z,3.90
2022-11-17T16:48:19.108Z,4.10
2022-11-17T16:50:51.433Z,5.60
2022-11-17T16:53:24.417Z,4.57
2022-11-17T16:56:02.746Z,6.07
2022-11-17T16:58:36.388Z,8.57
2022-11-17T17:01:14.346Z,6.80
2022-11-17T17:03:50.054Z,10.32
2022-11-17T17:06:28.147Z,3.33
2022-11-17T17:09:03.577Z,7.30
2022-11-17T17:11:37.908Z,7.78
2022-11-17T17:14:13.831Z,6.00
2022-11-17T17:16:46.356Z,11.13
2022-11-17T17:19:19.109Z,5.85
2022-11-17T17:21:51.635Z,6.85
2022-11-17T17:24:24.416Z,5.65
2022-11-17T17:26:57.519Z,6.57
2022-11-17T17:29:30.256Z,10.43
2022-11-17T17:32:03.412Z,7.85
2022-11-17T17:34:36.043Z,7.60
2022-11-17T17:37:09.081Z,9.48
2022-11-17T17:39:41.736Z,10.95
2022-11-17T17:42:14.559Z,9.18
2022-11-17T17:44:46.959Z,8.90
2022-11-17T17:47:19.289Z,3.88
2022-11-17T17:49:53.361Z,6.03
2022-11-17T17:52:25.731Z,6.93
2022-11-17T17:54:57.882Z,6.75
2022-11-17T17:57:32.727Z,5.13
2022-11-17T18:00:06.540Z,3.67
2022-11-17T18:02:39.269Z,12.68
2022-11-17T18:05:11.495Z,4.65
2022-11-17T18:07:44.669Z,8.75
2022-11-17T18:10:17.275Z,5.35
2022-11-17T18:12:49.446Z,11.30
2022-11-17T18:15:21.928Z,7.50
2022-11-17T18:17:55.326Z,13.45
2022-11-17T18:20:27.837Z,14.35
2022-11-17T18:23:00.107Z,11.98
2022-11-17T18:25:33.438Z,8.32
2022-11-17T18:28:05.823Z,7.22
2022-11-17T18:30:38.320Z,6.60
2022-11-17T18:33:10.568Z,3.28
2022-11-17T18:35:44.055Z,4.40
2022-11-17T18:38:16.979Z,3.60
2022-11-17T18:40:49.360Z,5.20
2022-11-17T18:43:22.258Z,4.35
2022-11-17T18:45:54.556Z,2.67
2022-11-17T18:48:39.646Z,5.05
2022-11-17T18:51:19.903Z,7.47
2022-11-17T18:54:00.408Z,4.57
2022-11-17T18:56:35.842Z,3.55
2022-11-17T18:59:12.131Z,4.75
2022-11-17T19:01:44.932Z,4.40
2022-11-17T19:04:18.254Z,2.55
2022-11-17T19:06:51.296Z,3.33
2022-11-17T19:09:23.842Z,3.30
2022-11-17T19:11:56.195Z,3.78
2022-11-17T19:14:28.828Z,10.48
2022-11-17T19:17:01.064Z,23.13
2022-11-17T19:19:33.650Z,21.98
2022-11-17T19:22:06.130Z,14.70
2022-11-17T19:24:40.877Z,9.25
2022-11-17T19:27:15.257Z,7.20
2022-11-17T19:29:48.385Z,5.38
2022-11-17T19:32:21.131Z,7.65
2022-11-17T19:34:54.199Z,4.88
2022-11-17T19:37:27.365Z,6.15
2022-11-17T19:40:00.583Z,3.17
2022-11-17T19:42:33.753Z,3.90
2022-11-17T19:45:07.215Z,4.47
2022-11-17T19:47:40.218Z,3.55
2022-11-17T19:50:13.127Z,3.80
2022-11-17T19:52:46.187Z,3.60
2022-11-17T19:55:19.095Z,3.88
2022-11-17T19:57:52.709Z,11.30
2022-11-17T20:00:25.473Z,3.08
2022-11-17T20:02:58.863Z,2.50
2022-11-17T20:05:33.315Z,3.60
2022-11-17T20:08:06.382Z,5.30
2022-11-17T20:10:39.620Z,3.08
2022-11-17T20:13:12.618Z,3.92
2022-11-17T20:15:45.230Z,2.60
2022-11-17T20:18:18.755Z,2.90
2022-11-17T20:20:51.513Z,2.20
2022-11-17T20:23:25.415Z,3.22
2022-11-17T20:25:57.732Z,4.72
2022-11-17T20:28:35.226Z,2.15
2022-11-17T20:31:10.012Z,2.10
2022-11-17T20:33:47.608Z,4.32
2022-11-17T20:36:21.747Z,2.38
2022-11-17T20:39:00.586Z,4.13
2022-11-17T20:41:35.567Z,2.85
2022-11-17T20:44:23.924Z,2.45
2022-11-17T20:46:56.732Z,2.00
2022-11-17T20:49:30.028Z,2.65
2022-11-17T20:52:03.167Z,1.75
2022-11-17T20:54:36.657Z,3.17
2022-11-17T20:57:09.282Z,1.48
2022-11-17T20:59:41.909Z,1.20
2022-11-17T21:02:15.365Z,1.50
2022-11-17T21:04:47.625Z,1.48
2022-11-17T21:07:24.101Z,1.80
2022-11-17T21:09:56.756Z,1.35
2022-11-17T21:12:28.851Z,2.30
2022-11-17T21:15:00.999Z,2.65
2022-11-17T21:17:52.419Z,3.85
2022-11-17T21:20:44.266Z,3.60
2022-11-17T21:23:16.563Z,3.58
2022-11-17T21:25:48.682Z,4.45
2022-11-17T21:28:20.890Z,7.70
2022-11-17T21:30:53.387Z,5.32
2022-11-17T21:33:32.971Z,3.67
2022-11-17T21:36:08.870Z,2.90
2022-11-17T21:38:47.186Z,2.08
2022-11-17T21:41:29.198Z,1.40
2022-11-17T21:44:05.281Z,1.40
2022-11-17T21:46:38.159Z,2.75
2022-11-17T21:49:11.078Z,1.30
2022-11-17T21:51:45.585Z,1.60
2022-11-17T21:54:18.231Z,1.70
2022-11-17T21:56:50.671Z,1.40
2022-11-17T21:59:22.732Z,1.35
2022-11-17T22:01:55.910Z,2.17
2022-11-17T22:04:28.139Z,1.40
2022-11-17T22:07:00.357Z,4.78
2022-11-17T22:09:33.541Z,1.20
2022-11-17T22:12:07.548Z,0.98
2022-11-17T22:14:39.767Z,1.20
2022-11-17T22:17:11.835Z,1.55
2022-11-17T22:19:44.023Z,1.40
2022-11-17T22:22:16.015Z,2.25
2022-11-17T22:24:49.948Z,1.30
2022-11-17T22:27:26.204Z,3.80
2022-11-17T22:29:58.961Z,1.00
2022-11-17T22:32:31.090Z,1.20
2022-11-17T22:35:03.319Z,1.42
2022-11-17T22:37:35.807Z,1.38
2022-11-17T22:40:08.169Z,1.30
2022-11-17T22:42:40.948Z,1.20
2022-11-17T22:45:12.992Z,1.15
2022-11-17T22:47:46.317Z,2.55
2022-11-17T22:50:18.358Z,1.73
2022-11-17T22:52:50.409Z,1.20
2022-11-17T22:55:22.496Z,2.17
2022-11-17T22:57:54.698Z,1.85
2022-11-17T23:00:27.430Z,1.83
2022-11-17T23:02:59.838Z,1.42
2022-11-17T23:05:32.191Z,1.38
2022-11-17T23:08:09.503Z,1.90
2022-11-17T23:10:42.805Z,1.52
2022-11-17T23:13:14.889Z,1.45
2022-11-17T23:15:47.030Z,1.35
2022-11-17T23:18:19.082Z,1.42
2022-11-17T23:20:52.064Z,1.48
2022-11-17T23:23:24.624Z,1.38
2022-11-17T23:26:01.745Z,1.10
2022-11-17T23:28:36.296Z,1.17
2022-11-17T23:31:17.491Z,1.10
2022-11-17T23:33:50.638Z,0.90
2022-11-17T23:36:23.392Z,1.10
2022-11-17T23:38:57.540Z,1.05
2022-11-17T23:41:29.578Z,1.67
2022-11-17T23:44:01.474Z,1.10
2022-11-17T23:46:33.443Z,1.05
2022-11-17T23:49:05.775Z,1.20
2022-11-17T23:51:37.792Z,0.95
2022-11-17T23:54:13.174Z,1.20
2022-11-17T23:56:45.500Z,0.93
2022-11-17T23:59:21.588Z,1.05
